createdAt,value
2022-10-13T00:01:10.893Z,81.25
2022-10-13T00:03:40.046Z,81.76
2022-10-13T00:06:09.566Z,81.37
2022-10-13T00:08:38.161Z,81.86
2022-10-13T00:11:20.884Z,82.29
2022-10-13T00:13:49.619Z,81.87
2022-10-13T00:16:19.964Z,82.28
2022-10-13T00:18:48.437Z,82.13
2022-10-13T00:21:18.893Z,82.92
2022-10-13T00:23:48.264Z,82.83
2022-10-13T00:26:21.772Z,82.60
2022-10-13T00:28:53.089Z,82.78
2022-10-13T00:31:23.461Z,82.44
2022-10-13T00:33:51.845Z,82.65
2022-10-13T00:36:22.946Z,82.06
2022-10-13T00:38:51.203Z,81.86
2022-10-13T00:41:18.966Z,81.19
2022-10-13T00:44:00.053Z,81.31
2022-10-13T00:46:30.516Z,81.95
2022-10-13T00:49:14.265Z,81.71
2022-10-13T00:51:48.998Z,82.34
2022-10-13T00:54:21.696Z,82.41
2022-10-13T00:56:51.427Z,82.74
2022-10-13T00:59:23.315Z,82.55
2022-10-13T01:01:53.958Z,83.22
2022-10-13T01:04:25.571Z,82.81
2022-10-13T01:06:55.081Z,83.89
2022-10-13T01:09:23.670Z,84.49
2022-10-13T01:12:13.667Z,84.56
2022-10-13T01:15:03.091Z,84.11
2022-10-13T01:17:44.534Z,83.76
2022-10-13T01:20:26.774Z,83.59
2022-10-13T01:23:15.405Z,83.07
2022-10-13T01:26:01.195Z,83.01
2022-10-13T01:29:01.063Z,83.11
2022-10-13T01:31:46.626Z,83.27
2022-10-13T01:34:39.834Z,83.81
2022-10-13T01:37:22.410Z,83.51
2022-10-13T01:40:02.102Z,84.66
2022-10-13T01:42:49.650Z,85.23
2022-10-13T01:45:22.012Z,84.81
2022-10-13T01:47:51.672Z,85.61
2022-10-13T01:50:20.671Z,85.93
2022-10-13T01:52:50.248Z,85.92
2022-10-13T01:55:17.766Z,85.71
2022-10-13T01:57:45.543Z,86.57
2022-10-13T02:00:16.984Z,86.97
2022-10-13T02:03:11.841Z,86.26
2022-10-13T02:05:54.581Z,86.71
2022-10-13T02:08:29.885Z,87.09
2022-10-13T02:11:10.880Z,87.03
2022-10-13T02:13:47.419Z,87.47
2022-10-13T02:16:23.666Z,87.35
2022-10-13T02:18:52.578Z,88.73
2022-10-13T02:21:19.927Z,89.01
2022-10-13T02:23:47.418Z,89.97
2022-10-13T02:26:14.821Z,89.48
2022-10-13T02:28:42.708Z,89.61
2022-10-13T02:31:10.238Z,89.75
2022-10-13T02:33:37.690Z,89.87
2022-10-13T02:36:05.967Z,89.52
2022-10-13T02:38:33.499Z,89.45
2022-10-13T02:41:02.769Z,89.18
2022-10-13T02:43:30.137Z,89.40
2022-10-13T02:45:57.498Z,89.35
2022-10-13T02:48:25.012Z,90.10
2022-10-13T02:50:52.347Z,89.98
2022-10-13T02:53:22.339Z,89.77
2022-10-13T02:55:49.897Z,89.96
2022-10-13T02:58:17.216Z,89.89
2022-10-13T03:00:44.588Z,89.32
2022-10-13T03:03:12.557Z,88.15
2022-10-13T03:05:44.383Z,87.49
2022-10-13T03:08:11.724Z,87.18
2022-10-13T03:10:40.803Z,86.93
2022-10-13T03:13:08.154Z,87.12
2022-10-13T03:15:35.529Z,87.05
2022-10-13T03:18:06.463Z,86.75
2022-10-13T03:20:33.916Z,86.35
2022-10-13T03:23:01.298Z,86.95
2022-10-13T03:25:29.052Z,86.28
2022-10-13T03:27:56.425Z,86.17
2022-10-13T03:30:23.918Z,85.52
2022-10-13T03:32:51.262Z,84.89
2022-10-13T03:35:18.744Z,85.33
2022-10-13T03:37:46.178Z,85.82
2022-10-13T03:40:13.540Z,86.64
2022-10-13T03:42:40.842Z,87.02
2022-10-13T03:45:09.862Z,88.34
2022-10-13T03:47:37.595Z,88.24
2022-10-13T03:50:06.478Z,88.18
2022-10-13T03:52:33.760Z,88.25
2022-10-13T03:55:01.200Z,88.00
2022-10-13T03:57:28.705Z,87.22
2022-10-13T03:59:57.425Z,87.13
2022-10-13T04:02:27.552Z,86.61
2022-10-13T04:04:55.358Z,86.51
2022-10-13T04:07:22.833Z,86.56
2022-10-13T04:09:50.244Z,85.48
2022-10-13T04:12:20.881Z,86.17
2022-10-13T04:14:49.006Z,86.59
2022-10-13T04:17:16.343Z,87.25
2022-10-13T04:19:43.700Z,87.62
2022-10-13T04:22:11.016Z,87.12
2022-10-13T04:24:38.410Z,86.87
2022-10-13T04:27:05.728Z,86.31
2022-10-13T04:29:33.110Z,86.74
2022-10-13T04:32:00.436Z,87.57
2022-10-13T04:34:27.814Z,86.88
2022-10-13T04:36:55.302Z,86.39
2022-10-13T04:39:22.670Z,86.44
2022-10-13T04:41:50.783Z,86.47
2022-10-13T04:44:18.156Z,86.25
2022-10-13T04:46:45.599Z,86.42
2022-10-13T04:49:12.946Z,85.88
2022-10-13T04:51:42.665Z,86.57
2022-10-13T04:54:10.265Z,87.43
2022-10-13T04:56:37.611Z,88.33
2022-10-13T04:59:05.823Z,89.32
2022-10-13T05:01:35.821Z,90.10
2022-10-13T05:04:07.138Z,90.10
2022-10-13T05:06:53.625Z,90.39
2022-10-13T05:09:26.698Z,90.76
2022-10-13T05:11:55.307Z,90.38
2022-10-13T05:14:23.505Z,90.56
2022-10-13T05:16:50.870Z,91.10
2022-10-13T05:19:18.232Z,90.58
2022-10-13T05:21:45.637Z,90.89
2022-10-13T05:24:13.484Z,91.12
2022-10-13T05:26:41.572Z,90.79
2022-10-13T05:29:09.844Z,90.69
2022-10-13T05:31:37.209Z,91.44
2022-10-13T05:34:04.539Z,91.33
2022-10-13T05:36:34.915Z,91.11
2022-10-13T05:39:05.719Z,90.85
2022-10-13T05:41:33.866Z,90.83
2022-10-13T05:44:06.536Z,90.99
2022-10-13T05:46:35.642Z,90.67
2022-10-13T05:49:03.422Z,90.21
2022-10-13T05:51:32.792Z,90.05
2022-10-13T05:54:15.093Z,89.89
2022-10-13T05:56:48.163Z,89.34
2022-10-13T05:59:21.360Z,88.33
2022-10-13T06:01:52.158Z,88.23
2022-10-13T06:04:30.514Z,88.14
2022-10-13T06:06:57.914Z,87.84
2022-10-13T06:09:26.874Z,86.61
2022-10-13T06:11:54.182Z,82.24
2022-10-13T06:14:22.841Z,77.20
2022-10-13T06:16:51.674Z,72.47
2022-10-13T06:19:19.032Z,69.96
2022-10-13T06:21:46.584Z,69.82
2022-10-13T06:24:13.939Z,71.06
2022-10-13T06:26:41.760Z,73.13
2022-10-13T06:29:09.194Z,75.90
2022-10-13T06:31:36.582Z,77.39
2022-10-13T06:34:04.930Z,79.24
2022-10-13T06:36:33.171Z,80.25
2022-10-13T06:39:00.508Z,80.47
2022-10-13T06:41:27.985Z,80.51
2022-10-13T06:43:55.319Z,80.21
2022-10-13T06:46:22.667Z,80.40
2022-10-13T06:48:51.130Z,80.17
2022-10-13T06:51:21.164Z,79.57
2022-10-13T06:53:49.925Z,79.73
2022-10-13T06:56:23.396Z,79.74
2022-10-13T06:58:50.782Z,80.74
2022-10-13T07:01:18.194Z,79.88
2022-10-13T07:03:49.533Z,79.75
2022-10-13T07:06:19.620Z,79.09
2022-10-13T07:08:47.162Z,78.63
2022-10-13T07:11:16.737Z,77.77
2022-10-13T07:13:49.079Z,76.08
2022-10-13T07:16:19.006Z,75.88
2022-10-13T07:18:47.937Z,75.33
2022-10-13T07:21:18.027Z,74.22
2022-10-13T07:23:45.383Z,74.84
2022-10-13T07:26:16.163Z,73.72
2022-10-13T07:28:44.390Z,74.63
2022-10-13T07:31:17.785Z,74.98
2022-10-13T07:33:47.658Z,73.51
2022-10-13T07:36:17.378Z,73.69
2022-10-13T07:38:45.094Z,69.35
2022-10-13T07:41:13.149Z,61.45
2022-10-13T07:43:41.173Z,54.84
2022-10-13T07:46:10.301Z,50.49
2022-10-13T07:48:37.659Z,48.37
2022-10-13T07:51:07.423Z,46.05
2022-10-13T07:53:35.554Z,44.40
2022-10-13T07:56:05.274Z,43.08
2022-10-13T07:58:33.677Z,41.32
2022-10-13T08:01:02.198Z,41.52
2022-10-13T08:03:31.870Z,40.11
2022-10-13T08:06:01.548Z,39.67
2022-10-13T08:08:29.277Z,38.74
2022-10-13T08:11:03.389Z,39.41
2022-10-13T08:13:32.802Z,39.35
2022-10-13T08:16:08.542Z,38.96
2022-10-13T08:18:35.883Z,39.63
2022-10-13T08:21:32.944Z,38.31
2022-10-13T08:23:52.061Z,37.74
2022-10-13T08:26:23.842Z,38.71
2022-10-13T08:31:42.062Z,37.91
2022-10-13T08:34:10.512Z,38.54
2022-10-13T08:36:38.892Z,37.54
2022-10-13T08:39:06.416Z,37.85
2022-10-13T08:41:39.029Z,38.32
2022-10-13T08:45:06.402Z,37.46
2022-10-13T08:47:23.819Z,37.49
2022-10-13T08:49:52.137Z,37.20
2022-10-13T08:52:25.241Z,36.95
2022-10-13T08:54:54.891Z,35.81
2022-10-13T08:57:24.421Z,36.44
2022-10-13T08:59:52.601Z,36.27
2022-10-13T09:02:27.246Z,35.07
2022-10-13T09:04:55.724Z,35.23
2022-10-13T09:07:29.613Z,35.90
2022-10-13T09:09:57.947Z,35.77
2022-10-13T09:12:26.275Z,34.44
2022-10-13T09:15:05.267Z,35.63
2022-10-13T09:17:34.293Z,35.92
2022-10-13T09:20:07.024Z,36.96
2022-10-13T09:22:39.568Z,36.05
2022-10-13T09:25:06.941Z,35.84
2022-10-13T09:27:49.548Z,35.80
2022-10-13T09:30:34.465Z,36.28
2022-10-13T09:33:13.795Z,36.09
2022-10-13T09:35:42.805Z,36.98
2022-10-13T09:38:22.174Z,38.63
2022-10-13T09:41:10.003Z,39.20
2022-10-13T09:43:44.254Z,39.02
2022-10-13T09:46:52.498Z,39.89
2022-10-13T09:49:34.620Z,39.61
2022-10-13T09:52:26.473Z,40.90
2022-10-13T09:55:00.912Z,41.37
2022-10-13T09:57:34.306Z,42.06
2022-10-13T10:00:17.514Z,43.40
2022-10-13T10:02:56.549Z,44.11
2022-10-13T10:05:35.903Z,44.92
2022-10-13T10:08:33.630Z,43.66
2022-10-13T10:11:38.022Z,43.68
2022-10-13T10:14:23.876Z,42.93
2022-10-13T10:17:21.796Z,45.97
2022-10-13T10:20:09.773Z,46.68
2022-10-13T10:22:49.532Z,46.68
2022-10-13T10:25:35.485Z,48.57
2022-10-13T10:28:45.676Z,48.36
2022-10-13T10:31:47.355Z,49.20
2022-10-13T10:34:32.943Z,49.20
2022-10-13T10:37:25.625Z,49.60
2022-10-13T10:40:00.170Z,49.84
2022-10-13T10:42:39.527Z,48.57
2022-10-13T10:45:16.969Z,50.21
2022-10-13T10:47:47.869Z,49.43
2022-10-13T10:50:18.247Z,49.38
2022-10-13T10:53:09.199Z,51.02
2022-10-13T10:55:55.105Z,51.74
2022-10-13T10:58:34.582Z,51.12
2022-10-13T11:01:12.121Z,49.44
2022-10-13T11:04:35.584Z,52.04
2022-10-13T11:07:04.251Z,52.01
2022-10-13T11:09:43.570Z,52.19
2022-10-13T11:12:49.708Z,51.83
2022-10-13T11:15:28.705Z,52.79
2022-10-13T11:17:56.086Z,51.30
2022-10-13T11:20:26.626Z,50.96
2022-10-13T11:22:59.827Z,51.90
2022-10-13T11:25:48.827Z,51.20
2022-10-13T11:28:42.654Z,51.30
2022-10-13T11:31:14.739Z,51.81
2022-10-13T11:33:42.101Z,51.60
2022-10-13T11:36:32.440Z,51.11
2022-10-13T11:39:18.613Z,52.04
2022-10-13T11:41:51.760Z,52.32
2022-10-13T11:44:34.844Z,51.42
2022-10-13T11:47:17.243Z,50.78
2022-10-13T11:50:10.865Z,50.68
2022-10-13T11:52:47.740Z,50.14
2022-10-13T11:55:19.924Z,49.38
2022-10-13T11:57:48.260Z,50.02
2022-10-13T12:00:18.930Z,51.75
2022-10-13T12:02:53.205Z,50.68
2022-10-13T12:05:27.373Z,48.75
2022-10-13T12:07:58.945Z,48.83
2022-10-13T12:10:37.560Z,49.08
2022-10-13T12:13:21.873Z,50.88
2022-10-13T12:16:08.333Z,50.04
2022-10-13T12:18:40.900Z,51.21
2022-10-13T12:21:13.042Z,50.24
2022-10-13T12:23:41.017Z,49.96
2022-10-13T12:26:15.878Z,49.44
2022-10-13T12:28:46.899Z,49.43
2022-10-13T12:31:30.456Z,49.62
2022-10-13T12:34:03.324Z,48.99
2022-10-13T12:36:35.426Z,48.63
2022-10-13T12:39:12.175Z,48.60
2022-10-13T12:41:48.975Z,48.37
2022-10-13T12:44:28.310Z,49.51
2022-10-13T12:47:02.069Z,49.10
2022-10-13T12:49:33.578Z,50.19
2022-10-13T12:52:09.810Z,49.44
2022-10-13T12:54:49.939Z,49.34
2022-10-13T12:57:37.822Z,49.32
2022-10-13T13:00:26.529Z,50.83
2022-10-13T13:02:55.173Z,50.68
2022-10-13T13:05:40.687Z,52.39
2022-10-13T13:08:23.656Z,52.37
2022-10-13T13:10:55.145Z,52.72
2022-10-13T13:13:23.557Z,52.26
2022-10-13T13:15:51.043Z,53.26
2022-10-13T13:18:27.438Z,52.65
2022-10-13T13:20:55.094Z,51.74
2022-10-13T13:23:23.491Z,51.61
2022-10-13T13:26:13.295Z,50.90
2022-10-13T13:28:47.604Z,50.78
2022-10-13T13:31:17.125Z,49.30
2022-10-13T13:33:44.785Z,49.54
2022-10-13T13:36:18.714Z,49.85
2022-10-13T13:38:51.421Z,50.46
2022-10-13T13:41:19.255Z,48.37
2022-10-13T13:43:46.718Z,48.92
2022-10-13T13:46:20.897Z,48.93
2022-10-13T13:48:50.743Z,50.16
2022-10-13T13:51:18.290Z,50.92
2022-10-13T13:53:46.586Z,52.01
2022-10-13T13:56:15.998Z,50.76
2022-10-13T13:58:43.966Z,51.74
2022-10-13T14:01:13.369Z,51.82
2022-10-13T14:03:40.708Z,51.43
2022-10-13T14:06:09.258Z,51.31
2022-10-13T14:08:42.599Z,52.43
2022-10-13T14:11:10.689Z,52.56
2022-10-13T14:13:38.052Z,53.06
2022-10-13T14:16:05.648Z,53.05
2022-10-13T14:18:33.036Z,52.78
2022-10-13T14:21:00.405Z,53.15
2022-10-13T14:23:27.811Z,53.30
2022-10-13T14:25:55.354Z,52.76
2022-10-13T14:28:23.185Z,52.95
2022-10-13T14:30:50.665Z,53.02
2022-10-13T14:33:19.657Z,53.48
2022-10-13T14:35:47.173Z,53.34
2022-10-13T14:38:16.833Z,53.60
2022-10-13T14:40:44.998Z,53.69
2022-10-13T14:43:12.300Z,53.11
2022-10-13T14:45:39.620Z,53.51
2022-10-13T14:48:11.786Z,54.51
2022-10-13T14:50:39.257Z,53.66
2022-10-13T14:53:09.617Z,54.18
2022-10-13T14:55:37.167Z,54.00
2022-10-13T14:58:04.557Z,54.59
2022-10-13T15:00:31.930Z,55.40
2022-10-13T15:03:02.559Z,54.54
2022-10-13T15:05:30.531Z,54.45
2022-10-13T15:07:58.130Z,54.34
2022-10-13T15:10:25.519Z,53.97
2022-10-13T15:12:53.005Z,53.90
2022-10-13T15:15:20.651Z,54.18
2022-10-13T15:17:47.953Z,55.19
2022-10-13T15:20:15.303Z,55.82
2022-10-13T15:22:42.747Z,55.86
2022-10-13T15:25:11.893Z,55.98
2022-10-13T15:27:41.835Z,56.34
2022-10-13T15:30:12.368Z,56.82
2022-10-13T15:32:39.708Z,56.96
2022-10-13T15:35:07.451Z,57.53
2022-10-13T15:37:36.769Z,56.63
2022-10-13T15:40:04.640Z,56.81
2022-10-13T15:42:31.908Z,56.72
2022-10-13T15:45:15.556Z,56.42
2022-10-13T15:47:42.959Z,57.36
2022-10-13T15:50:10.571Z,57.58
2022-10-13T15:52:39.764Z,57.23
2022-10-13T15:55:09.349Z,57.64
2022-10-13T15:57:37.016Z,57.81
2022-10-13T16:00:06.284Z,57.27
2022-10-13T16:02:40.907Z,57.37
2022-10-13T16:05:12.897Z,57.67
2022-10-13T16:07:41.442Z,58.11
2022-10-13T16:10:10.659Z,58.23
2022-10-13T16:12:39.001Z,58.45
2022-10-13T16:15:10.762Z,58.24
2022-10-13T16:17:38.515Z,58.24
2022-10-13T16:20:06.472Z,58.77
2022-10-13T16:22:33.952Z,58.54
2022-10-13T16:25:06.304Z,59.22
2022-10-13T16:27:33.762Z,59.50
2022-10-13T16:30:01.217Z,59.77
2022-10-13T16:32:28.803Z,60.09
2022-10-13T16:34:59.738Z,60.14
2022-10-13T16:37:27.201Z,60.45
2022-10-13T16:39:54.560Z,60.65
2022-10-13T16:42:22.086Z,61.17
2022-10-13T16:44:49.389Z,61.25
2022-10-13T16:47:18.622Z,62.12
2022-10-13T16:49:47.091Z,61.91
2022-10-13T16:52:15.444Z,61.92
2022-10-13T16:54:45.998Z,61.72
2022-10-13T16:57:13.379Z,62.02
2022-10-13T16:59:41.081Z,61.88
2022-10-13T17:02:14.748Z,63.02
2022-10-13T17:04:43.127Z,62.92
2022-10-13T17:07:10.563Z,62.75
2022-10-13T17:09:37.852Z,62.97
2022-10-13T17:12:05.859Z,63.04
2022-10-13T17:14:33.207Z,62.97
2022-10-13T17:17:00.617Z,63.60
2022-10-13T17:19:28.189Z,64.05
2022-10-13T17:21:56.677Z,64.32
2022-10-13T17:24:24.064Z,64.03
2022-10-13T17:26:51.476Z,63.92
2022-10-13T17:29:18.956Z,64.89
2022-10-13T17:31:46.432Z,65.41
2022-10-13T17:34:13.840Z,66.13
2022-10-13T17:36:41.272Z,66.68
2022-10-13T17:39:11.555Z,67.22
2022-10-13T17:41:40.978Z,67.38
2022-10-13T17:44:08.376Z,67.81
2022-10-13T17:46:37.871Z,67.94
2022-10-13T17:49:10.975Z,68.17
2022-10-13T17:51:40.264Z,68.34
2022-10-13T17:54:12.942Z,68.60
2022-10-13T17:56:41.955Z,68.44
2022-10-13T17:59:10.213Z,68.63
2022-10-13T18:01:37.931Z,68.94
2022-10-13T18:04:08.495Z,69.02
2022-10-13T18:06:40.454Z,69.33
2022-10-13T18:09:10.426Z,69.50
2022-10-13T18:11:38.825Z,69.05
2022-10-13T18:14:06.745Z,69.01
2022-10-13T18:16:34.636Z,69.64
2022-10-13T18:19:02.583Z,70.38
2022-10-13T18:21:30.618Z,70.26
2022-10-13T18:24:00.796Z,70.25
2022-10-13T18:26:36.645Z,70.65
2022-10-13T18:29:06.271Z,70.77
2022-10-13T18:31:38.556Z,70.64
2022-10-13T18:34:08.737Z,72.13
2022-10-13T18:36:42.291Z,72.51
2022-10-13T18:39:16.225Z,73.15
2022-10-13T18:41:46.614Z,73.16
2022-10-13T18:44:14.761Z,73.41
2022-10-13T18:46:44.075Z,73.49
2022-10-13T18:49:13.432Z,73.80
2022-10-13T18:51:42.619Z,74.11
2022-10-13T18:54:10.291Z,74.38
2022-10-13T18:56:37.772Z,73.58
2022-10-13T18:59:08.501Z,73.95
2022-10-13T19:01:38.476Z,74.79
2022-10-13T19:04:06.112Z,74.40
2022-10-13T19:06:33.711Z,74.11
2022-10-13T19:09:07.417Z,73.72
2022-10-13T19:11:37.371Z,72.88
2022-10-13T19:14:06.969Z,72.23
2022-10-13T19:16:37.164Z,73.12
2022-10-13T19:19:07.033Z,73.38
2022-10-13T19:21:34.918Z,73.82
2022-10-13T19:24:02.271Z,73.59
2022-10-13T19:26:32.679Z,73.89
2022-10-13T19:29:04.558Z,74.23
2022-10-13T19:31:33.196Z,74.65
2022-10-13T19:34:03.390Z,74.04
2022-10-13T19:36:34.160Z,73.96
2022-10-13T19:39:04.715Z,74.58
2022-10-13T19:41:33.386Z,74.75
2022-10-13T19:44:01.184Z,75.18
2022-10-13T19:46:40.169Z,75.15
2022-10-13T19:49:08.373Z,76.06
2022-10-13T19:51:37.919Z,76.18
2022-10-13T19:54:05.487Z,76.10
2022-10-13T19:56:33.959Z,76.37
2022-10-13T19:59:04.406Z,76.55
2022-10-13T20:01:39.804Z,76.59
2022-10-13T20:04:10.225Z,77.11
2022-10-13T20:06:39.229Z,77.41
2022-10-13T20:09:06.862Z,78.10
2022-10-13T20:11:34.482Z,78.06
2022-10-13T20:14:01.826Z,78.30
2022-10-13T20:16:29.407Z,78.33
2022-10-13T20:18:59.775Z,77.94
2022-10-13T20:21:28.063Z,77.46
2022-10-13T20:23:56.227Z,77.63
2022-10-13T20:26:24.356Z,77.59
2022-10-13T20:28:53.176Z,77.25
2022-10-13T20:31:22.187Z,77.95
2022-10-13T20:33:55.130Z,77.19
2022-10-13T20:36:25.316Z,78.05
2022-10-13T20:38:52.658Z,78.50
2022-10-13T20:41:28.779Z,78.73
2022-10-13T20:43:58.122Z,79.28
2022-10-13T20:46:26.585Z,79.43
2022-10-13T20:49:11.566Z,79.11
2022-10-13T20:51:40.078Z,79.43
2022-10-13T20:54:07.913Z,78.47
2022-10-13T20:56:35.809Z,78.41
2022-10-13T20:59:09.279Z,79.11
2022-10-13T21:01:37.123Z,79.37
2022-10-13T21:04:14.938Z,78.83
2022-10-13T21:06:53.314Z,78.70
2022-10-13T21:09:31.495Z,78.19
2022-10-13T21:12:09.844Z,78.90
2022-10-13T21:14:47.659Z,79.28
2022-10-13T21:17:25.864Z,79.12
2022-10-13T21:20:04.356Z,79.43
2022-10-13T21:22:44.006Z,79.94
2022-10-13T21:25:22.050Z,80.50
2022-10-13T21:28:02.613Z,80.35
2022-10-13T21:30:40.058Z,80.49
2022-10-13T21:33:18.365Z,80.71
2022-10-13T21:35:57.199Z,81.37
2022-10-13T21:38:35.892Z,80.85
2022-10-13T21:41:15.100Z,81.04
2022-10-13T21:43:53.318Z,81.25
2022-10-13T21:46:34.294Z,82.89
2022-10-13T21:49:12.409Z,82.47
2022-10-13T21:51:52.609Z,82.26
2022-10-13T21:54:30.533Z,82.54
2022-10-13T21:57:08.561Z,82.96
2022-10-13T21:59:47.662Z,83.25
2022-10-13T22:02:25.023Z,83.15
2022-10-13T22:05:03.601Z,83.25
2022-10-13T22:07:41.449Z,83.16
2022-10-13T22:10:19.713Z,84.15
2022-10-13T22:12:57.969Z,83.90
2022-10-13T22:15:36.150Z,84.10
2022-10-13T22:18:15.041Z,84.20
2022-10-13T22:20:52.379Z,84.81
2022-10-13T22:23:29.410Z,84.73
2022-10-13T22:26:08.374Z,84.55
2022-10-13T22:28:48.549Z,84.61
2022-10-13T22:31:27.995Z,84.70
2022-10-13T22:34:06.731Z,84.46
2022-10-13T22:36:45.609Z,85.00
2022-10-13T22:39:23.455Z,85.09
2022-10-13T22:42:04.490Z,85.48
2022-10-13T22:44:44.881Z,84.77
2022-10-13T22:47:22.916Z,84.36
2022-10-13T22:50:00.693Z,84.27
2022-10-13T22:52:38.949Z,84.26
2022-10-13T22:55:17.103Z,84.67
2022-10-13T22:57:56.745Z,83.68
2022-10-13T23:00:39.160Z,84.42
2022-10-13T23:03:16.864Z,84.41
2022-10-13T23:06:00.627Z,84.80
2022-10-13T23:08:39.572Z,85.49
2022-10-13T23:11:18.273Z,86.03
2022-10-13T23:13:55.852Z,85.31
2022-10-13T23:16:36.912Z,85.16
2022-10-13T23:19:15.318Z,85.02
2022-10-13T23:21:53.548Z,85.72
2022-10-13T23:24:31.771Z,86.35
2022-10-13T23:27:09.929Z,86.80
2022-10-13T23:29:51.408Z,87.14
2022-10-13T23:32:29.661Z,87.45
2022-10-13T23:35:08.243Z,87.52
2022-10-13T23:37:45.962Z,87.89
2022-10-13T23:40:25.402Z,87.99
2022-10-13T23:43:03.958Z,88.36
2022-10-13T23:45:43.852Z,88.28
2022-10-13T23:48:25.235Z,88.23
2022-10-13T23:51:10.128Z,88.95
2022-10-13T23:53:48.093Z,88.96
2022-10-13T23:56:29.138Z,89.11
2022-10-13T23:59:07.777Z,89.62
